Time;durP1;ratioP1;P1;durP2;ratioP2;P2;SDS_P1;SDS_P2;PMS_P1;PMS_P2;Temp;Humidity;BMP_temperature;BMP_pressure;BME280_temperature;BME280_humidity;BME280_pressure;Samples;Min_cycle;Max_cycle;Signal;HPM_P1;HPM_P2
2022/03/03 00:00:15;;;;;;;16.17;11.10;;;;;;;2.29;49.22;96896.91;4959191;29;20059;-79
2022/03/03 00:02:44;;;;;;;16.65;12.32;;;;;;;2.25;49.62;96892.94;4963155;28;20035;-79
2022/03/03 00:05:13;;;;;;;18.13;12.07;;;;;;;2.25;49.44;96890.38;4978937;28;20051;-79
2022/03/03 00:07:41;;;;;;;20.50;13.55;;;;;;;2.20;49.63;96877.06;4978338;28;20034;-80
2022/03/03 00:10:10;;;;;;;21.38;12.98;;;;;;;2.15;50.25;96866.34;4968369;28;20051;-85
2022/03/03 00:12:39;;;;;;;19.67;12.80;;;;;;;2.10;50.00;96861.56;4970157;28;20047;-82
2022/03/03 00:15:09;;;;;;;20.20;12.38;;;;;;;2.03;50.60;96858.66;4971798;29;20071;-81
2022/03/03 00:17:37;;;;;;;21.08;13.23;;;;;;;1.97;50.52;96860.91;4964410;29;20054;-90
2022/03/03 00:20:06;;;;;;;23.98;13.32;;;;;;;1.87;50.61;96875.41;4964663;29;20089;-83
2022/03/03 00:22:33;;;;;;;19.60;13.20;;;;;;;1.75;50.60;96874.59;4969114;28;20047;-82
2022/03/03 00:25:01;;;;;;;22.10;12.50;;;;;;;1.69;50.78;96872.53;4962314;29;20406;-87
2022/03/03 00:27:29;;;;;;;18.17;12.15;;;;;;;1.63;51.02;96866.91;4959576;29;20058;-87
2022/03/03 00:29:58;;;;;;;21.55;12.60;;;;;;;1.62;51.23;96872.19;4960526;29;20047;-83
2022/03/03 00:32:26;;;;;;;18.55;11.95;;;;;;;1.59;51.32;96873.22;4960616;28;20055;-88
2022/03/03 00:34:53;;;;;;;19.30;12.38;;;;;;;1.59;51.06;96875.78;4960641;29;20053;-85
2022/03/03 00:37:21;;;;;;;17.63;12.30;;;;;;;1.61;51.14;96879.06;4959053;29;20059;-89
2022/03/03 00:39:49;;;;;;;16.17;11.73;;;;;;;1.65;50.92;96883.03;4959105;29;20532;-84
2022/03/03 00:42:16;;;;;;;20.50;11.57;;;;;;;1.72;50.92;96877.44;4959549;28;20446;-86
2022/03/03 00:44:44;;;;;;;17.75;12.30;;;;;;;1.78;50.56;96882.91;4959749;29;20054;-86
2022/03/03 00:47:12;;;;;;;17.85;13.05;;;;;;;1.86;51.01;96884.91;4959238;29;20071;-87
2022/03/03 00:49:40;;;;;;;17.83;12.88;;;;;;;1.93;51.37;96880.91;4959430;29;20055;-87
2022/03/03 00:52:08;;;;;;;19.17;11.82;;;;;;;2.02;50.77;96880.16;4958891;28;20066;-85
2022/03/03 00:54:36;;;;;;;17.73;13.00;;;;;;;2.12;51.62;96879.41;4959382;29;20081;-84
2022/03/03 00:57:03;;;;;;;18.52;12.40;;;;;;;2.19;51.05;96883.16;4959109;29;20058;-83
2022/03/03 00:59:31;;;;;;;23.70;13.93;;;;;;;2.22;50.90;96885.47;4959819;29;20536;-80
2022/03/03 01:01:58;;;;;;;23.38;13.48;;;;;;;2.23;50.89;96887.94;4959626;28;20061;-84
2022/03/03 01:04:28;;;;;;;18.95;13.07;;;;;;;2.26;50.91;96892.03;4959867;29;20070;-85
2022/03/03 01:06:55;;;;;;;21.92;13.25;;;;;;;2.26;50.64;96889.44;4959480;29;20063;-80
2022/03/03 01:09:23;;;;;;;18.73;12.32;;;;;;;2.26;50.65;96890.25;4959552;29;20047;-83
2022/03/03 01:11:50;;;;;;;20.13;12.93;;;;;;;2.26;50.44;96884.31;4959114;28;20047;-86
2022/03/03 01:14:21;;;;;;;20.13;13.18;;;;;;;2.29;50.71;96878.91;4959771;29;20520;-79
2022/03/03 01:16:49;;;;;;;19.58;14.00;;;;;;;2.31;50.69;96887.31;4958697;29;20058;-84
2022/03/03 01:19:16;;;;;;;22.17;14.50;;;;;;;2.40;51.74;96891.72;4959507;29;20528;-81
2022/03/03 01:25:41;;;;;;;21.30;14.98;;;;;;;2.53;51.26;96881.25;4997860;28;20055;-82
2022/03/03 01:43:18;;;;;;;24.33;15.52;;;;;;;2.09;51.46;96861.66;4996905;28;20053;-80
2022/03/03 02:51:00;;;;;;;27.58;15.32;;;;;;;1.37;53.85;96824.41;4939263;29;20097;-80
2022/03/03 03:05:53;;;;;;;23.27;13.85;;;;;;;1.27;53.94;96816.63;4863735;29;20164;-81
2022/03/03 05:29:55;;;;;;;20.65;13.55;;;;;;;0.78;54.73;96723.56;4772801;30;20079;-83
2022/03/03 05:32:29;;;;;;;21.58;14.00;;;;;;;0.71;54.83;96726.75;4760218;30;20052;-83
2022/03/03 05:35:02;;;;;;;20.98;14.10;;;;;;;0.64;54.61;96715.31;4777450;29;20128;-84
2022/03/03 05:37:30;;;;;;;20.65;13.68;;;;;;;0.60;54.83;96719.84;4814367;29;20142;-83
2022/03/03 05:40:08;;;;;;;20.65;13.32;;;;;;;0.59;54.89;96723.34;4809945;29;20065;-83
2022/03/03 05:42:52;;;;;;;22.00;14.43;;;;;;;0.58;55.13;96726.84;4809471;29;20063;-82
2022/03/03 05:45:21;;;;;;;25.50;15.60;;;;;;;0.57;55.37;96728.63;4815901;29;20059;-83
2022/03/03 05:47:51;;;;;;;24.05;15.63;;;;;;;0.60;55.15;96727.56;4812011;29;20057;-82
2022/03/03 05:50:51;;;;;;;25.42;14.65;;;;;;;0.64;55.13;96720.44;4811761;29;20059;-82
2022/03/03 05:59:59;;;;;;;25.15;14.63;;;;;;;0.81;54.75;96718.22;4958476;29;20051;-80
2022/03/03 06:02:32;;;;;;;28.83;16.25;;;;;;;0.85;54.81;96712.84;4959320;29;20087;-80
2022/03/03 06:05:33;;;;;;;25.92;16.52;;;;;;;0.90;55.20;96706.41;4960241;28;20051;-80
2022/03/03 06:09:17;;;;;;;25.90;15.85;;;;;;;0.91;54.78;96702.91;4959184;28;20057;-80
2022/03/03 06:12:28;;;;;;;23.27;14.98;;;;;;;0.89;54.17;96699.63;4958402;29;20065;-79
2022/03/03 06:26:44;;;;;;;29.98;15.70;;;;;;;0.96;54.53;96690.53;4757297;29;20196;-80
2022/03/03 06:46:52;;;;;;;24.33;14.38;;;;;;;1.46;53.45;96641.19;6009180;23;20025;-80
2022/03/03 07:00:27;;;;;;;22.30;13.07;;;;;;;2.17;52.66;96656.81;4918228;29;20123;-83
2022/03/03 07:03:07;;;;;;;22.63;13.90;;;;;;;2.35;51.75;96674.22;4927884;29;20071;-83
2022/03/03 07:16:41;;;;;;;20.42;13.75;;;;;;;3.27;52.00;96718.72;5217808;23;20105;-84
2022/03/03 07:19:40;;;;;;;22.27;14.65;;;;;;;3.47;52.84;96727.28;4958228;28;20055;-82
2022/03/03 07:22:31;;;;;;;26.40;16.15;;;;;;;3.72;52.54;96728.53;5000846;23;20141;-80
2022/03/03 07:25:03;;;;;;;24.73;16.02;;;;;;;3.92;52.06;96734.50;4954671;29;20055;-79
2022/03/03 07:27:32;;;;;;;23.40;15.63;;;;;;;4.10;50.43;96732.03;4953973;29;20047;-81
2022/03/03 07:30:02;;;;;;;24.08;16.30;;;;;;;4.25;50.55;96734.19;4954014;29;20055;-81
2022/03/03 07:32:35;;;;;;;23.73;14.65;;;;;;;4.45;49.91;96730.59;4954477;28;20052;-80
2022/03/03 07:35:05;;;;;;;;;;;;;;;4.69;50.74;96730.13;4955318;29;20054;-81
2022/03/03 07:37:37;;;;;;;20.13;14.48;;;;;;;4.88;49.45;96729.25;4935029;29;19929;-80
2022/03/03 07:40:07;;;;;;;23.65;14.80;;;;;;;5.05;49.23;96726.84;4935149;29;20052;-80
2022/03/03 07:42:36;;;;;;;22.02;15.15;;;;;;;5.19;48.94;96716.03;4935522;29;20052;-80
2022/03/03 07:45:07;;;;;;;23.60;15.82;;;;;;;5.34;50.19;96711.19;4937998;29;20530;-80
2022/03/03 07:47:35;;;;;;;23.88;14.95;;;;;;;5.51;48.21;96707.78;4936874;29;20047;-80
2022/03/03 07:50:06;;;;;;;24.35;15.38;;;;;;;5.57;46.83;96703.78;4935943;29;20052;-80
2022/03/03 07:52:35;;;;;;;22.55;14.20;;;;;;;5.70;48.72;96693.88;4936684;29;20566;-80
2022/03/03 07:55:03;;;;;;;19.65;14.90;;;;;;;5.92;47.49;96694.38;4935253;29;20435;-81
2022/03/03 07:57:36;;;;;;;27.88;16.08;;;;;;;6.14;46.01;96698.28;4940429;29;20059;-80
2022/03/03 08:00:07;;;;;;;23.10;16.77;;;;;;;6.34;46.70;96697.16;4944081;29;20052;-80
2022/03/03 08:02:35;;;;;;;27.00;17.17;;;;;;;6.57;46.90;96694.03;4944445;29;20068;-81
2022/03/03 08:05:06;;;;;;;25.85;17.95;;;;;;;6.79;47.16;96696.06;4935188;29;20051;-80
2022/03/03 08:07:41;;;;;;;26.67;19.67;;;;;;;6.99;43.52;96694.03;4935037;29;20138;-81
2022/03/03 08:10:11;;;;;;;25.88;18.17;;;;;;;7.17;44.34;96695.72;4939468;29;20308;-82
2022/03/03 08:12:40;;;;;;;25.55;18.95;;;;;;;7.37;43.83;96697.09;4957486;28;20059;-81
2022/03/03 08:15:09;;;;;;;27.77;18.70;;;;;;;7.57;42.96;96691.59;4958777;29;20421;-82
2022/03/03 08:17:37;;;;;;;27.90;19.05;;;;;;;7.83;42.86;96687.06;4953248;29;20498;-80
2022/03/03 08:20:09;;;;;;;29.05;18.77;;;;;;;8.07;42.12;96693.25;4954090;29;20063;-80
2022/03/03 08:22:39;;;;;;;23.13;17.88;;;;;;;8.34;43.00;96689.47;4953975;28;20487;-81
2022/03/03 08:25:08;;;;;;;27.80;18.05;;;;;;;8.56;43.33;96681.97;4953972;29;20058;-82
2022/03/03 08:27:36;;;;;;;26.73;17.88;;;;;;;8.76;42.48;96683.19;4954977;29;20047;-80
2022/03/03 08:30:06;;;;;;;25.10;16.70;;;;;;;8.91;41.48;96688.50;4954998;28;20059;-80
2022/03/03 08:32:37;;;;;;;23.60;16.17;;;;;;;9.12;40.73;96684.50;4958066;28;20055;-81
2022/03/03 08:35:13;;;;;;;23.58;16.48;;;;;;;9.34;40.40;96688.97;4958827;29;20062;-80
2022/03/03 08:37:42;;;;;;;27.00;15.65;;;;;;;9.56;40.21;96683.97;4957570;29;20418;-80
2022/03/03 08:40:13;;;;;;;24.33;16.65;;;;;;;9.72;39.83;96683.81;4960695;29;20062;-81
2022/03/03 08:42:44;;;;;;;22.85;16.40;;;;;;;9.86;38.98;96687.47;4961894;28;20706;-82
2022/03/03 08:45:12;;;;;;;20.25;14.98;;;;;;;10.06;38.81;96693.03;4962702;29;20047;-82
2022/03/03 08:47:42;;;;;;;18.60;13.40;;;;;;;10.20;37.98;96691.44;4963989;29;20055;-82
2022/03/03 08:50:14;;;;;;;18.08;13.40;;;;;;;10.31;37.75;96691.81;4968054;29;20086;-81
2022/03/03 08:52:54;;;;;;;16.52;12.82;;;;;;;10.48;37.64;96686.47;4965202;28;20055;-82
2022/03/03 08:55:23;;;;;;;17.45;12.88;;;;;;;10.65;36.84;96692.34;4965740;29;20051;-82
2022/03/03 08:57:51;;;;;;;17.20;13.63;;;;;;;10.77;36.62;96682.25;4963768;29;20051;-82
2022/03/03 09:00:19;;;;;;;14.95;12.35;;;;;;;10.90;37.70;96683.22;4968421;29;20141;-82
2022/03/03 09:02:47;;;;;;;17.15;12.18;;;;;;;11.08;36.32;96682.81;4975178;28;20047;-81
2022/03/03 09:05:17;;;;;;;15.02;10.77;;;;;;;11.32;35.75;96675.66;4980319;28;20047;-81
2022/03/03 09:07:45;;;;;;;14.98;12.07;;;;;;;11.51;34.89;96677.69;4981129;28;20049;-81
2022/03/03 09:10:14;;;;;;;14.43;11.65;;;;;;;11.69;34.98;96676.44;4981348;28;20059;-81
2022/03/03 09:12:43;;;;;;;14.45;11.57;;;;;;;11.86;35.61;96661.31;4980176;28;20031;-81
2022/03/03 09:15:12;;;;;;;13.02;10.82;;;;;;;12.09;34.20;96667.19;4980420;28;20509;-81
2022/03/03 09:17:41;;;;;;;15.65;11.25;;;;;;;12.30;34.85;96658.47;4981368;28;20095;-81
2022/03/03 09:20:13;;;;;;;13.88;10.80;;;;;;;12.47;34.93;96668.66;4980544;28;20079;-81
2022/03/03 09:22:44;;;;;;;14.80;10.45;;;;;;;12.62;33.25;96674.59;4979990;28;20055;-81
2022/03/03 09:25:12;;;;;;;17.48;11.05;;;;;;;12.81;34.40;96677.50;4979553;28;20051;-84
2022/03/03 09:27:41;;;;;;;15.48;12.23;;;;;;;13.02;33.57;96674.78;4981120;28;20047;-84
2022/03/03 09:30:11;;;;;;;18.80;11.63;;;;;;;13.22;33.45;96666.19;4980304;28;20043;-83
2022/03/03 09:32:41;;;;;;;15.20;11.27;;;;;;;13.42;33.53;96661.03;4981063;28;20050;-84
2022/03/03 09:35:11;;;;;;;15.13;10.90;;;;;;;13.59;31.76;96667.53;4980332;28;20051;-82
2022/03/03 09:37:42;;;;;;;12.13;10.80;;;;;;;13.75;31.67;96659.28;4980260;28;20083;-84
2022/03/03 09:40:13;;;;;;;14.82;10.75;;;;;;;13.93;30.88;96663.94;4980977;28;20110;-84
2022/03/03 09:42:42;;;;;;;16.88;11.65;;;;;;;14.15;30.96;96655.88;4980040;28;20038;-82
2022/03/03 09:45:12;;;;;;;15.05;11.50;;;;;;;14.33;30.23;96663.13;4980552;28;20079;-83
2022/03/03 09:47:40;;;;;;;12.40;9.88;;;;;;;14.49;30.40;96662.69;4980023;28;20063;-82
2022/03/03 09:50:09;;;;;;;14.15;11.07;;;;;;;14.70;29.36;96669.53;4980241;28;20074;-81
2022/03/03 09:52:38;;;;;;;13.18;10.77;;;;;;;14.89;28.76;96667.06;4979983;28;20066;-83
2022/03/03 09:55:07;;;;;;;14.63;10.23;;;;;;;15.04;28.32;96663.19;4980846;28;20031;-82
2022/03/03 09:57:37;;;;;;;15.40;10.70;;;;;;;15.25;28.33;96658.63;4977269;28;20055;-82
2022/03/03 10:00:08;;;;;;;14.40;11.18;;;;;;;15.44;28.09;96655.09;4978306;29;20043;-83
2022/03/03 10:02:55;;;;;;;11.32;9.68;;;;;;;15.61;27.16;96647.53;4976553;28;20043;-83
2022/03/03 10:05:37;;;;;;;13.35;10.88;;;;;;;15.79;26.78;96640.75;4973456;29;20039;-83
2022/03/03 10:08:08;;;;;;;14.53;10.43;;;;;;;15.98;27.55;96639.81;4979616;28;20039;-82
2022/03/03 10:10:40;;;;;;;15.35;10.35;;;;;;;16.24;26.93;96636.13;4979228;28;20043;-82
2022/03/03 10:13:24;;;;;;;12.38;10.23;;;;;;;16.53;26.36;96633.00;4980238;28;20035;-83
2022/03/03 10:15:54;;;;;;;12.95;10.38;;;;;;;16.74;26.65;96635.22;4978350;28;20074;-82
2022/03/03 10:18:24;;;;;;;12.25;10.48;;;;;;;16.95;25.82;96628.75;4979215;28;20059;-83
2022/03/03 10:20:56;;;;;;;13.57;10.63;;;;;;;17.18;24.15;96633.31;4974683;29;20074;-83
2022/03/03 10:23:28;;;;;;;12.82;11.10;;;;;;;17.37;25.00;96628.00;4975088;28;20058;-83
2022/03/03 10:25:58;;;;;;;14.87;10.37;;;;;;;17.54;25.16;96631.63;4972234;28;20048;-82
2022/03/03 10:28:29;;;;;;;12.55;10.68;;;;;;;17.71;23.98;96629.94;4978548;29;20043;-82
2022/03/03 10:31:02;;;;;;;14.27;10.18;;;;;;;17.90;24.29;96635.16;4974449;29;20058;-83
2022/03/03 10:33:34;;;;;;;13.85;10.05;;;;;;;18.11;23.99;96626.69;4974731;28;20099;-82
2022/03/03 10:36:06;;;;;;;11.35;10.05;;;;;;;18.30;23.13;96624.75;4973505;29;20055;-83
2022/03/03 10:38:35;;;;;;;;;;;;;;;18.57;23.75;96628.75;4972154;29;20051;-82
2022/03/03 10:41:05;;;;;;;13.57;10.50;;;;;;;18.62;23.33;96615.66;4974317;29;19946;-82
2022/03/03 10:44:00;;;;;;;11.57;10.00;;;;;;;18.75;23.98;96615.41;4976295;28;20051;-82
2022/03/03 10:46:29;;;;;;;15.65;10.75;;;;;;;18.99;23.48;96605.59;4961082;29;20061;-82
2022/03/03 10:48:57;;;;;;;12.43;10.10;;;;;;;19.16;22.15;96610.94;4972815;28;20106;-82
2022/03/03 10:51:26;;;;;;;15.68;10.20;;;;;;;19.23;21.97;96600.22;4973963;28;20047;-81
2022/03/03 10:53:57;;;;;;;13.88;10.90;;;;;;;19.26;21.13;96608.50;4971330;28;20059;-80
2022/03/03 10:56:28;;;;;;;12.32;10.50;;;;;;;19.36;21.27;96599.94;4975366;29;20502;-80
2022/03/03 10:58:59;;;;;;;10.68;9.63;;;;;;;19.56;21.52;96599.47;4972471;29;20077;-82
2022/03/03 11:01:30;;;;;;;;;;;;;;;19.91;22.06;96595.84;4974414;28;20047;-81
2022/03/03 11:04:00;;;;;;;13.43;9.70;;;;;;;20.26;21.53;96592.13;4973945;29;19923;-82
2022/03/03 11:06:30;;;;;;;11.00;9.40;;;;;;;20.56;20.50;96589.88;4974802;29;20051;-82
2022/03/03 11:09:05;;;;;;;11.23;9.68;;;;;;;20.93;20.11;96586.66;4974627;29;20035;-81
2022/03/03 11:11:33;;;;;;;13.20;10.40;;;;;;;21.24;18.83;96589.63;4976680;28;20055;-82
2022/03/03 11:14:05;;;;;;;11.00;9.65;;;;;;;21.49;19.70;96593.59;4977801;28;20031;-82
2022/03/03 11:16:35;;;;;;;11.27;10.10;;;;;;;21.66;19.10;96583.66;4959437;28;20039;-82
2022/03/03 11:19:03;;;;;;;12.70;10.48;;;;;;;21.84;18.92;96579.81;4975246;29;20067;-82
2022/03/03 11:21:31;;;;;;;11.98;10.68;;;;;;;22.14;18.27;96584.56;4978152;28;20062;-82
2022/03/03 11:24:01;;;;;;;11.48;10.02;;;;;;;22.44;17.95;96587.72;4978850;28;20055;-83
2022/03/03 11:26:34;;;;;;;11.98;9.95;;;;;;;22.60;16.88;96584.84;4978659;28;20042;-83
2022/03/03 11:29:10;;;;;;;;;;;;;;;22.83;16.36;96590.81;4978567;28;20045;-82
2022/03/03 11:31:41;;;;;;;11.60;8.50;;;;;;;22.97;16.47;96589.25;4977007;28;19911;-82
2022/03/03 11:34:30;;;;;;;12.98;10.30;;;;;;;23.09;15.34;96588.25;4977015;29;20051;-81
2022/03/03 11:37:04;;;;;;;12.88;8.88;;;;;;;23.29;15.33;96577.66;4976554;29;20031;-82
2022/03/03 11:39:54;;;;;;;11.20;9.43;;;;;;;23.80;15.25;96567.06;4977574;29;20059;-82
2022/03/03 11:42:29;;;;;;;11.27;9.57;;;;;;;24.36;14.64;96573.38;4977560;28;20057;-82
2022/03/03 11:45:00;;;;;;;11.60;9.43;;;;;;;24.84;14.51;96563.13;4977876;29;20098;-82
2022/03/03 11:47:32;;;;;;;10.20;8.73;;;;;;;25.44;15.58;96561.19;4979014;28;20095;-82
2022/03/03 11:50:13;;;;;;;9.90;8.80;;;;;;;26.03;13.22;96548.72;4979384;28;20072;-83
2022/03/03 11:52:43;;;;;;;10.82;8.93;;;;;;;26.48;14.24;96551.19;4979519;28;20054;-82
2022/03/03 11:55:29;;;;;;;11.40;10.20;;;;;;;26.90;13.23;96549.66;4979744;28;20039;-82
2022/03/03 11:58:09;;;;;;;12.88;10.13;;;;;;;27.21;12.96;96551.91;4979640;28;20102;-81
2022/03/03 12:00:41;;;;;;;14.88;10.40;;;;;;;27.33;12.64;96544.25;4977572;28;20059;-82
2022/03/03 12:03:12;;;;;;;;;;;;;;;27.64;13.34;96543.75;4976956;28;20067;-83
2022/03/03 12:05:46;;;;;;;11.15;9.93;;;;;;;27.80;12.84;96545.13;4981257;28;19918;-82
2022/03/03 12:08:35;;;;;;;11.63;10.43;;;;;;;27.72;12.60;96535.84;4983212;28;20062;-82
2022/03/03 12:11:09;;;;;;;12.55;10.20;;;;;;;27.83;12.81;96536.47;4979866;29;20051;-82
2022/03/03 12:13:51;;;;;;;15.80;9.93;;;;;;;28.02;12.71;96532.97;4979786;29;20055;-83
2022/03/03 12:16:25;;;;;;;12.02;9.18;;;;;;;28.17;12.57;96535.38;4981808;28;20107;-82
2022/03/03 12:19:14;;;;;;;11.88;9.75;;;;;;;27.86;11.74;96535.94;4977774;29;20055;-81
2022/03/03 12:21:44;;;;;;;11.55;9.80;;;;;;;27.46;11.61;96527.44;4979183;29;20070;-83
2022/03/03 12:24:48;;;;;;;10.20;8.55;;;;;;;27.00;11.41;96536.09;4993321;23;20114;-80
2022/03/03 12:36:27;;;;;;;10.90;9.32;;;;;;;21.33;16.45;96511.19;5240288;23;20118;-80
2022/03/03 12:39:02;;;;;;;11.07;9.32;;;;;;;20.63;17.55;96517.38;5001895;28;20070;-79
2022/03/03 12:45:01;;;;;;;12.55;10.32;;;;;;;19.23;18.35;96515.59;5101920;23;20065;-79
2022/03/03 12:48:15;;;;;;;12.52;9.95;;;;;;;18.59;19.14;96507.81;4967369;28;20035;-81
2022/03/03 12:50:59;;;;;;;11.77;8.63;;;;;;;18.28;19.34;96509.84;4979668;28;20039;-81
2022/03/03 12:53:56;;;;;;;12.20;10.32;;;;;;;17.94;19.69;96504.38;5145591;23;20078;-78
2022/03/03 12:57:15;;;;;;;12.30;10.75;;;;;;;17.49;20.36;96508.34;5078137;23;20046;-80
2022/03/03 12:59:49;;;;;;;14.55;10.55;;;;;;;17.08;21.22;96507.34;4985864;28;20066;-79
2022/03/03 13:02:29;;;;;;;14.60;10.15;;;;;;;16.81;21.08;96509.53;5001629;28;20094;-79
2022/03/03 13:08:11;;;;;;;14.57;11.27;;;;;;;16.23;21.89;96510.03;5378080;23;20031;-78
2022/03/03 13:11:11;;;;;;;12.38;10.60;;;;;;;16.04;22.58;96502.09;5001353;28;20119;-79
2022/03/03 13:14:24;;;;;;;14.25;10.68;;;;;;;15.90;22.17;96495.38;4981860;29;20138;-78
2022/03/03 13:23:11;;;;;;;13.77;10.70;;;;;;;15.17;22.61;96499.38;4980878;28;20035;-78
2022/03/03 13:26:00;;;;;;;12.73;10.40;;;;;;;14.99;22.84;96494.88;4981254;28;20058;-81
2022/03/03 13:28:42;;;;;;;10.25;8.93;;;;;;;14.88;22.07;96492.13;4965007;28;20035;-79
2022/03/03 15:28:04;;;;;;;5.80;4.85;;;;;;;12.64;19.15;96439.69;4957951;29;20299;-80
2022/03/03 15:39:36;;;;;;;8.20;5.28;;;;;;;12.27;20.23;96439.19;4978753;28;20041;-81
2022/03/03 15:45:47;;;;;;;7.45;5.88;;;;;;;12.12;20.43;96430.66;4982054;28;20035;-79
2022/03/03 15:48:37;;;;;;;8.25;7.00;;;;;;;12.12;21.12;96441.13;4983486;28;20058;-81
2022/03/03 15:57:39;;;;;;;7.97;6.45;;;;;;;11.88;21.97;96440.63;5611533;23;20047;-81
2022/03/03 16:01:30;;;;;;;10.68;6.63;;;;;;;11.80;22.27;96440.75;5579437;23;20789;-82
2022/03/03 17:36:15;;;;;;;10.80;7.88;;;;;;;9.40;25.15;96516.47;3327629;23;20301;-79
2022/03/03 17:38:43;;;;;;;10.82;7.95;;;;;;;9.34;25.58;96511.94;5056660;23;20047;-79
2022/03/03 18:49:27;;;;;;;12.30;8.55;;;;;;;7.19;31.92;96574.44;5250856;23;20059;-81
2022/03/03 18:51:55;;;;;;;16.60;9.00;;;;;;;7.17;31.97;96571.19;4964520;28;20055;-80
2022/03/03 18:54:22;;;;;;;11.95;8.45;;;;;;;7.13;32.62;96565.53;4969667;29;20441;-81
2022/03/03 18:56:50;;;;;;;13.90;9.70;;;;;;;7.15;32.53;96567.94;4966418;29;20256;-81
2022/03/03 18:59:17;;;;;;;13.23;9.18;;;;;;;7.16;32.76;96569.59;4965299;29;20077;-81
2022/03/03 19:01:45;;;;;;;12.35;8.77;;;;;;;7.07;32.58;96575.75;4965802;28;20051;-82
2022/03/03 19:04:14;;;;;;;16.00;10.10;;;;;;;6.92;32.74;96578.94;4969593;28;20066;-80
2022/03/03 19:06:43;;;;;;;15.80;9.85;;;;;;;6.82;32.79;96578.25;4962066;29;20053;-81
2022/03/03 19:09:10;;;;;;;13.23;8.50;;;;;;;6.79;33.51;96586.38;4968563;29;20062;-80
2022/03/03 19:11:38;;;;;;;19.92;10.02;;;;;;;6.74;33.30;96592.03;4966815;28;20070;-81
2022/03/03 19:14:06;;;;;;;14.27;7.68;;;;;;;6.67;33.85;96590.22;4966042;28;20589;-81
2022/03/03 19:16:34;;;;;;;12.82;8.55;;;;;;;6.58;33.65;96592.81;4954604;29;20414;-81
2022/03/03 19:19:02;;;;;;;15.85;9.30;;;;;;;6.42;34.24;96590.13;4948042;29;20445;-80
2022/03/03 19:21:28;;;;;;;18.35;9.77;;;;;;;6.27;34.47;96591.69;4956793;28;20054;-81
2022/03/03 19:23:57;;;;;;;17.52;8.85;;;;;;;6.12;34.54;96592.28;5381183;23;20509;-80
2022/03/03 19:26:27;;;;;;;12.63;8.32;;;;;;;6.00;34.95;96601.25;4957313;29;20118;-79
2022/03/03 19:41:22;;;;;;;8.52;7.03;;;;;;;5.47;36.35;96602.16;4824152;29;20069;-82
2022/03/03 20:15:23;;;;;;;12.30;8.90;;;;;;;4.79;37.79;96613.81;5679276;23;20134;-81
2022/03/03 20:18:28;;;;;;;12.57;8.95;;;;;;;4.72;39.04;96612.75;4957413;29;20055;-83
2022/03/03 20:35:10;;;;;;;13.88;10.18;;;;;;;4.78;39.03;96622.50;4959931;29;20082;-81
2022/03/03 20:37:55;;;;;;;17.33;10.35;;;;;;;4.82;39.21;96623.03;4961997;29;20053;-83
2022/03/03 20:40:24;;;;;;;18.42;11.50;;;;;;;4.87;38.51;96619.03;4973221;29;20082;-82
2022/03/03 20:43:02;;;;;;;16.15;11.23;;;;;;;4.91;38.79;96622.16;4963314;29;20055;-82
2022/03/03 20:45:37;;;;;;;17.10;10.98;;;;;;;4.91;38.83;96620.38;4963088;29;20055;-82
2022/03/03 20:48:07;;;;;;;20.30;11.52;;;;;;;4.97;39.04;96615.59;4961191;29;20138;-82
2022/03/03 20:50:37;;;;;;;18.10;11.60;;;;;;;5.05;38.82;96628.59;4960928;29;20051;-82
2022/03/03 20:53:06;;;;;;;20.23;12.57;;;;;;;5.16;38.57;96625.81;4961705;29;20047;-82
2022/03/03 20:55:35;;;;;;;21.15;13.80;;;;;;;5.21;38.54;96631.34;4962052;29;20051;-82
2022/03/03 20:58:03;;;;;;;22.88;14.75;;;;;;;5.20;38.46;96621.94;4961695;29;20055;-82
2022/03/03 21:00:32;;;;;;;25.15;14.93;;;;;;;5.20;38.73;96626.31;4961962;29;20050;-82
2022/03/03 21:03:01;;;;;;;22.00;14.55;;;;;;;5.23;38.84;96626.03;4963078;29;20067;-82
2022/03/03 21:05:31;;;;;;;20.50;12.98;;;;;;;5.23;38.40;96633.81;4962538;29;20061;-82
2022/03/03 21:08:02;;;;;;;22.38;13.73;;;;;;;5.16;38.32;96631.78;4963779;29;20059;-82
2022/03/03 21:10:30;;;;;;;20.05;13.73;;;;;;;5.09;38.81;96632.50;4962979;29;20138;-82
2022/03/03 21:12:59;;;;;;;21.15;14.05;;;;;;;5.10;38.67;96631.56;4963244;29;20510;-82
2022/03/03 21:15:30;;;;;;;24.58;15.70;;;;;;;5.09;38.81;96627.34;4975839;29;20083;-81
2022/03/03 21:17:58;;;;;;;26.00;16.23;;;;;;;5.10;38.98;96636.75;4974029;29;20107;-82
2022/03/03 21:20:27;;;;;;;22.88;14.82;;;;;;;5.10;38.65;96632.38;4965888;29;20562;-82
2022/03/03 21:22:59;;;;;;;21.75;15.23;;;;;;;5.09;38.71;96632.50;4962161;29;20129;-82
2022/03/03 21:25:30;;;;;;;26.08;15.98;;;;;;;5.11;39.06;96638.34;4962724;29;20059;-82
2022/03/03 21:27:58;;;;;;;25.08;16.02;;;;;;;5.11;38.84;96638.34;4962838;29;20061;-82
2022/03/03 21:30:27;;;;;;;25.90;15.07;;;;;;;5.05;38.83;96638.94;4962302;29;20138;-82
2022/03/03 21:32:55;;;;;;;23.90;14.88;;;;;;;4.99;39.10;96640.34;4961945;29;20074;-79
2022/03/03 21:35:23;;;;;;;26.05;15.35;;;;;;;4.94;39.31;96648.53;4961673;29;20425;-81
2022/03/03 21:37:51;;;;;;;26.67;15.95;;;;;;;4.91;39.01;96643.66;4960682;28;20047;-81
2022/03/03 21:40:20;;;;;;;27.75;16.45;;;;;;;4.87;39.53;96647.47;4961875;29;20082;-81
2022/03/03 21:42:50;;;;;;;23.60;15.68;;;;;;;4.85;40.13;96640.81;4962169;29;20047;-81
2022/03/03 21:45:18;;;;;;;27.13;15.35;;;;;;;4.87;39.80;96639.72;4961257;29;20528;-82
2022/03/03 21:47:48;;;;;;;25.58;16.80;;;;;;;4.91;39.63;96641.06;4961252;29;20501;-82
2022/03/03 21:50:17;;;;;;;28.10;17.48;;;;;;;4.98;40.14;96646.47;4961765;29;20047;-81
2022/03/03 21:52:45;;;;;;;25.70;17.67;;;;;;;5.01;39.78;96642.78;4960807;29;20047;-82
2022/03/03 21:55:14;;;;;;;25.70;16.50;;;;;;;4.99;39.39;96644.72;4961700;29;20098;-82
2022/03/03 21:57:43;;;;;;;24.80;14.70;;;;;;;4.97;39.59;96644.03;4969242;28;20042;-82
2022/03/03 22:00:14;;;;;;;25.77;16.60;;;;;;;4.98;39.60;96643.06;4980655;28;20036;-81
2022/03/03 22:02:42;;;;;;;26.38;14.45;;;;;;;4.92;39.06;96644.47;4980538;28;20054;-82
2022/03/03 22:05:12;;;;;;;26.45;15.15;;;;;;;4.89;39.66;96637.81;4970181;28;20075;-82
2022/03/03 22:07:41;;;;;;;22.33;13.98;;;;;;;4.90;39.40;96642.03;4970923;29;20055;-82
2022/03/03 22:10:10;;;;;;;24.90;14.73;;;;;;;4.90;39.74;96651.56;4964688;29;20138;-81
2022/03/03 22:12:39;;;;;;;24.45;14.50;;;;;;;4.91;39.61;96641.06;4961943;29;20061;-81
2022/03/03 22:15:13;;;;;;;21.10;14.23;;;;;;;4.95;39.71;96644.19;4961279;29;20058;-81
2022/03/03 22:17:43;;;;;;;23.88;13.55;;;;;;;4.99;39.53;96639.53;4961348;29;20062;-82
2022/03/03 22:20:14;;;;;;;18.20;13.23;;;;;;;5.04;39.65;96643.31;4960798;29;20051;-81
2022/03/03 22:22:43;;;;;;;20.10;12.05;;;;;;;5.08;39.48;96649.81;4961639;29;20115;-81
2022/03/03 22:25:13;;;;;;;19.00;12.23;;;;;;;5.15;39.20;96640.50;4960404;29;20059;-81
2022/03/03 22:27:42;;;;;;;20.90;13.57;;;;;;;5.19;39.30;96640.22;4960289;29;20061;-81
2022/03/03 22:30:12;;;;;;;23.98;12.85;;;;;;;5.20;39.32;96637.47;4960678;29;20071;-81
2022/03/03 22:32:42;;;;;;;21.63;13.20;;;;;;;5.21;39.56;96638.31;4959978;29;20074;-82
2022/03/03 22:35:12;;;;;;;21.52;12.63;;;;;;;5.14;39.41;96638.88;4960319;29;20078;-82
2022/03/03 22:37:40;;;;;;;22.05;14.60;;;;;;;5.13;39.37;96646.78;4959754;29;20174;-81
2022/03/03 22:40:10;;;;;;;24.48;12.80;;;;;;;5.16;39.44;96651.69;4960295;29;20061;-81
2022/03/03 22:42:38;;;;;;;23.85;12.60;;;;;;;5.16;38.63;96646.50;4960358;29;20050;-81
2022/03/03 22:45:07;;;;;;;20.60;12.77;;;;;;;5.10;38.84;96652.25;4960753;29;20055;-81
2022/03/03 22:47:35;;;;;;;17.80;11.27;;;;;;;5.08;39.07;96654.19;4960321;29;20453;-82
2022/03/03 22:52:51;;;;;;;16.15;11.30;;;;;;;5.07;39.16;96660.28;4959230;29;20054;-81
2022/03/03 22:55:19;;;;;;;18.20;11.77;;;;;;;5.02;38.81;96662.50;4959466;29;20106;-82
2022/03/03 22:57:47;;;;;;;19.02;12.57;;;;;;;4.93;39.55;96665.00;4961807;29;20516;-81
2022/03/03 23:00:39;;;;;;;17.13;11.85;;;;;;;4.93;39.81;96665.00;4960676;29;20125;-81
2022/03/03 23:05:54;;;;;;;22.67;12.23;;;;;;;4.86;39.49;96666.53;4959070;29;20051;-81
2022/03/03 23:08:22;;;;;;;17.17;12.02;;;;;;;4.79;40.10;96660.31;4958957;29;20130;-82